createdAt,value
2018-10-03T00:02:26.148Z,14.70
2018-10-03T00:04:56.971Z,14.70
2018-10-03T00:07:28.191Z,14.70
2018-10-03T00:09:58.774Z,14.70
2018-10-03T00:12:29.485Z,14.70
2018-10-03T00:15:02.624Z,14.60
2018-10-03T00:17:33.174Z,14.60
2018-10-03T00:20:04.117Z,14.60
2018-10-03T00:22:34.613Z,14.60
2018-10-03T00:25:05.355Z,14.60
2018-10-03T00:27:35.989Z,14.70
2018-10-03T00:30:07.404Z,14.60
2018-10-03T00:32:38.115Z,14.70
2018-10-03T00:35:08.682Z,14.70
2018-10-03T00:37:39.325Z,14.70
2018-10-03T00:40:10.589Z,14.70
2018-10-03T00:42:41.156Z,14.70
2018-10-03T00:45:11.834Z,14.70
2018-10-03T00:47:42.453Z,14.70
2018-10-03T00:50:13.134Z,14.70
2018-10-03T00:52:43.614Z,14.70
2018-10-03T00:55:14.232Z,14.80
2018-10-03T00:57:44.899Z,14.80
2018-10-03T01:00:15.694Z,14.80
2018-10-03T01:02:46.696Z,14.80
2018-10-03T01:05:17.462Z,14.80
2018-10-03T01:07:47.983Z,14.80
2018-10-03T01:10:18.726Z,14.80
2018-10-03T01:12:49.258Z,14.80
2018-10-03T01:15:19.773Z,14.80
2018-10-03T01:17:50.580Z,14.80
2018-10-03T01:20:21.144Z,14.80
2018-10-03T01:22:51.757Z,14.80
2018-10-03T01:25:22.942Z,14.80
2018-10-03T01:27:53.723Z,14.80
2018-10-03T01:30:24.357Z,14.80
2018-10-03T01:32:55.219Z,14.80
2018-10-03T01:35:25.812Z,14.80
2018-10-03T01:37:56.536Z,14.80
2018-10-03T01:40:27.066Z,14.80
2018-10-03T01:42:57.689Z,14.80
2018-10-03T01:45:28.267Z,14.80
2018-10-03T01:47:58.836Z,14.70
2018-10-03T01:50:29.601Z,14.70
2018-10-03T01:53:00.211Z,14.70
2018-10-03T01:55:31.135Z,14.70
2018-10-03T01:58:01.690Z,14.70
2018-10-03T02:00:32.459Z,14.80
2018-10-03T02:03:03.155Z,14.70
2018-10-03T02:05:33.910Z,14.70
2018-10-03T02:08:04.494Z,14.70
2018-10-03T02:10:35.117Z,14.70
2018-10-03T02:13:06.250Z,14.70
2018-10-03T02:15:36.622Z,14.70
2018-10-03T02:18:07.302Z,14.70
2018-10-03T02:20:38.310Z,14.70
2018-10-03T02:23:08.987Z,14.70
2018-10-03T02:25:39.624Z,14.70
2018-10-03T02:28:10.437Z,14.60
2018-10-03T02:30:41.189Z,14.60
2018-10-03T02:33:11.855Z,14.60
2018-10-03T02:35:42.551Z,14.60
2018-10-03T02:38:13.185Z,14.60
2018-10-03T02:40:43.998Z,14.60
2018-10-03T02:43:14.543Z,14.60
2018-10-03T02:45:47.013Z,14.50
2018-10-03T02:48:18.036Z,14.50
2018-10-03T02:50:48.748Z,14.50
2018-10-03T02:53:19.366Z,14.50
2018-10-03T02:55:50.099Z,14.40
2018-10-03T02:58:20.607Z,14.40
2018-10-03T03:00:51.125Z,14.40
2018-10-03T03:03:22.213Z,14.40
2018-10-03T03:05:53.372Z,14.40
2018-10-03T03:08:24.453Z,14.50
2018-10-03T03:11:02.002Z,14.50
2018-10-03T03:13:33.016Z,14.50
2018-10-03T03:16:03.832Z,14.50
2018-10-03T03:18:34.838Z,14.50
2018-10-03T03:21:05.995Z,14.50
2018-10-03T03:23:36.562Z,14.50
2018-10-03T03:26:07.441Z,14.50
2018-10-03T03:28:38.012Z,14.50
2018-10-03T03:31:08.564Z,14.50
2018-10-03T03:33:39.534Z,14.50
2018-10-03T03:36:10.357Z,14.50
2018-10-03T03:38:44.291Z,14.50
2018-10-03T03:41:15.041Z,14.40
2018-10-03T03:43:45.597Z,14.40
2018-10-03T03:46:16.300Z,14.40
2018-10-03T03:48:47.217Z,14.30
2018-10-03T03:51:17.753Z,14.30
2018-10-03T03:53:48.275Z,14.30
2018-10-03T03:56:18.793Z,14.20
2018-10-03T03:58:49.307Z,14.20
2018-10-03T04:01:20.034Z,14.20
2018-10-03T04:03:50.703Z,14.10
2018-10-03T04:06:21.349Z,14.10
2018-10-03T04:08:52.169Z,14.10
2018-10-03T04:11:22.799Z,14.10
2018-10-03T04:13:53.350Z,14.10
2018-10-03T04:16:23.931Z,14.10
2018-10-03T04:18:54.548Z,14.10
2018-10-03T04:21:29.189Z,14.10
2018-10-03T04:24:00.031Z,14.20
2018-10-03T04:26:30.691Z,14.20
2018-10-03T04:29:01.441Z,14.20
2018-10-03T04:31:32.736Z,14.20
2018-10-03T04:34:04.519Z,14.30
2018-10-03T04:36:35.758Z,14.20
2018-10-03T04:39:09.008Z,14.30
2018-10-03T04:41:39.751Z,14.30
2018-10-03T04:44:10.532Z,14.30
2018-10-03T04:46:41.321Z,14.30
2018-10-03T04:49:12.115Z,14.30
2018-10-03T04:51:42.963Z,14.40
2018-10-03T04:54:13.472Z,14.40
2018-10-03T04:56:44.768Z,14.30
2018-10-03T04:59:15.564Z,14.30
2018-10-03T05:01:46.775Z,14.30
2018-10-03T05:04:17.638Z,14.30
2018-10-03T05:06:48.379Z,14.30
2018-10-03T05:09:19.050Z,14.30
2018-10-03T05:11:49.710Z,14.30
2018-10-03T05:14:20.313Z,14.20
2018-10-03T05:16:51.030Z,14.20
2018-10-03T05:19:21.680Z,14.20
2018-10-03T05:21:53.190Z,14.10
2018-10-03T05:24:23.704Z,14.10
2018-10-03T05:26:54.313Z,14.10
2018-10-03T05:29:25.254Z,14.10
2018-10-03T05:31:55.742Z,14.00
2018-10-03T05:34:26.471Z,14.00
2018-10-03T05:36:56.951Z,14.00
2018-10-03T05:39:27.688Z,14.00
2018-10-03T05:41:58.377Z,14.00
2018-10-03T05:44:28.981Z,14.00
2018-10-03T05:46:59.672Z,14.00
2018-10-03T05:49:30.397Z,14.00
2018-10-03T05:52:01.080Z,14.00
2018-10-03T05:54:31.617Z,14.10
2018-10-03T05:57:02.445Z,14.10
2018-10-03T05:59:33.202Z,14.10
2018-10-03T06:02:04.829Z,14.10
2018-10-03T06:04:35.464Z,14.10
2018-10-03T06:07:06.334Z,14.20
2018-10-03T06:09:36.973Z,14.20
2018-10-03T06:12:07.834Z,14.20
2018-10-03T06:14:38.549Z,14.20
2018-10-03T06:17:09.497Z,14.20
2018-10-03T06:19:40.652Z,14.30
2018-10-03T06:22:11.397Z,14.30
2018-10-03T06:24:42.321Z,14.30
2018-10-03T06:27:12.959Z,14.30
2018-10-03T06:29:44.172Z,14.30
2018-10-03T06:32:15.142Z,14.40
2018-10-03T06:34:46.052Z,14.40
2018-10-03T06:37:16.586Z,14.40
2018-10-03T06:39:47.713Z,14.40
2018-10-03T06:42:18.559Z,14.40
2018-10-03T06:44:49.406Z,14.40
2018-10-03T06:47:20.077Z,14.40
2018-10-03T06:49:51.122Z,14.50
2018-10-03T06:52:22.114Z,14.50
2018-10-03T06:54:53.127Z,14.50
2018-10-03T06:57:23.674Z,14.50
2018-10-03T06:59:54.614Z,14.60
2018-10-03T07:02:24.974Z,14.60
2018-10-03T07:04:55.823Z,14.60
2018-10-03T07:07:26.861Z,14.70
2018-10-03T07:09:57.555Z,14.70
2018-10-03T07:12:28.207Z,14.70
2018-10-03T07:14:59.138Z,14.70
2018-10-03T07:17:29.866Z,14.80
2018-10-03T07:20:00.705Z,14.80
2018-10-03T07:22:31.489Z,14.90
2018-10-03T07:25:02.366Z,14.90
2018-10-03T07:27:32.920Z,14.90
2018-10-03T07:30:10.270Z,15.00
2018-10-03T07:32:40.856Z,15.00
2018-10-03T07:35:12.925Z,15.00
2018-10-03T07:37:43.597Z,15.10
2018-10-03T07:40:14.368Z,15.20
2018-10-03T07:42:45.177Z,15.20
2018-10-03T07:45:15.698Z,15.30
2018-10-03T07:47:46.410Z,15.30
2018-10-03T07:50:17.110Z,15.30
2018-10-03T07:52:47.842Z,15.40
2018-10-03T07:55:18.494Z,15.40
2018-10-03T07:57:49.474Z,15.50
2018-10-03T08:00:26.813Z,15.50
2018-10-03T08:02:58.110Z,15.50
2018-10-03T08:05:29.297Z,15.60
2018-10-03T08:07:59.991Z,15.60
2018-10-03T08:10:30.822Z,15.70
2018-10-03T08:13:01.674Z,15.70
2018-10-03T08:15:32.308Z,15.80
2018-10-03T08:18:03.174Z,15.80
2018-10-03T08:20:33.896Z,15.90
2018-10-03T08:23:04.506Z,16.00
2018-10-03T08:25:35.402Z,16.10
2018-10-03T08:28:06.590Z,16.20
2018-10-03T08:30:37.366Z,16.30
2018-10-03T08:33:08.232Z,16.40
2018-10-03T08:35:39.120Z,16.40
2018-10-03T08:38:09.848Z,16.50
2018-10-03T08:40:41.032Z,16.60
2018-10-03T08:43:11.634Z,16.70
2018-10-03T08:45:42.589Z,16.70
2018-10-03T08:48:13.460Z,16.80
2018-10-03T08:50:44.364Z,16.90
2018-10-03T08:53:15.097Z,17.00
2018-10-03T08:55:45.880Z,17.20
2018-10-03T08:58:16.825Z,17.20
2018-10-03T09:00:47.807Z,17.30
2018-10-03T09:03:18.690Z,17.40
2018-10-03T09:05:49.438Z,17.50
2018-10-03T09:08:19.971Z,17.60
2018-10-03T09:10:50.925Z,17.80
2018-10-03T09:13:21.995Z,17.90
2018-10-03T09:15:52.877Z,18.00
2018-10-03T09:18:23.960Z,18.10
2018-10-03T09:20:54.828Z,18.20
2018-10-03T09:23:25.485Z,18.40
2018-10-03T09:25:56.238Z,18.50
2018-10-03T09:28:27.317Z,18.70
2018-10-03T09:30:58.158Z,19.00
2018-10-03T09:33:29.002Z,19.20
2018-10-03T09:36:01.246Z,19.40
2018-10-03T09:38:31.929Z,19.50
2018-10-03T09:41:02.844Z,19.70
2018-10-03T09:43:33.400Z,19.90
2018-10-03T09:46:04.338Z,20.10
2018-10-03T09:48:34.938Z,20.40
2018-10-03T09:51:05.584Z,20.60
2018-10-03T09:53:36.312Z,21.00
2018-10-03T09:56:06.963Z,21.20
2018-10-03T09:58:38.229Z,21.50
2018-10-03T10:01:19.020Z,21.50
2018-10-03T10:03:50.112Z,21.50
2018-10-03T10:06:22.768Z,21.50
2018-10-03T10:08:53.498Z,21.40
2018-10-03T10:11:24.389Z,21.30
2018-10-03T10:13:55.098Z,21.10
2018-10-03T10:16:25.894Z,21.00
2018-10-03T10:18:57.462Z,20.90
2018-10-03T10:21:28.330Z,20.90
2018-10-03T10:23:58.917Z,20.70
2018-10-03T10:26:29.751Z,20.60
2018-10-03T10:29:00.231Z,20.60
2018-10-03T10:31:30.967Z,20.80
2018-10-03T10:34:01.740Z,21.00
2018-10-03T10:36:32.500Z,21.40
2018-10-03T10:39:04.143Z,21.80
2018-10-03T10:41:35.142Z,22.10
2018-10-03T10:44:06.617Z,22.40
2018-10-03T10:46:37.700Z,22.50
2018-10-03T10:49:08.838Z,22.60
2018-10-03T10:51:39.978Z,22.70
2018-10-03T10:54:10.992Z,22.80
2018-10-03T10:56:41.994Z,22.80
2018-10-03T10:59:13.182Z,22.70
2018-10-03T11:01:43.979Z,22.60
2018-10-03T11:04:14.913Z,22.40
2018-10-03T11:06:45.565Z,22.20
2018-10-03T11:09:16.729Z,22.00
2018-10-03T11:11:47.334Z,21.80
2018-10-03T11:14:18.114Z,21.60
2018-10-03T11:16:48.876Z,21.40
2018-10-03T11:19:19.898Z,21.40
2018-10-03T11:21:50.619Z,21.30
2018-10-03T11:24:21.765Z,21.20
2018-10-03T11:26:53.228Z,21.10
2018-10-03T11:29:23.938Z,21.10
2018-10-03T11:31:55.226Z,21.00
2018-10-03T11:34:26.146Z,21.00
2018-10-03T11:36:56.706Z,21.10
2018-10-03T11:39:27.630Z,21.50
2018-10-03T11:41:58.287Z,22.10
2018-10-03T11:44:29.050Z,23.00
2018-10-03T11:47:00.324Z,23.30
2018-10-03T11:49:31.728Z,24.00
2018-10-03T11:52:03.110Z,24.50
2018-10-03T11:54:34.467Z,25.20
2018-10-03T11:57:06.256Z,25.70
2018-10-03T11:59:37.635Z,26.20
2018-10-03T12:02:09.312Z,26.50
2018-10-03T12:04:40.522Z,26.70
2018-10-03T12:07:11.845Z,26.70
2018-10-03T12:09:43.262Z,26.60
2018-10-03T12:12:14.054Z,26.30
2018-10-03T12:14:45.366Z,25.90
2018-10-03T12:17:16.177Z,25.50
2018-10-03T12:19:46.986Z,25.10
2018-10-03T12:22:17.768Z,24.70
2018-10-03T12:24:48.604Z,24.40
2018-10-03T12:27:19.897Z,24.10
2018-10-03T12:29:50.795Z,23.70
2018-10-03T12:32:21.570Z,23.50
2018-10-03T12:34:52.312Z,23.30
2018-10-03T12:37:23.003Z,23.10
2018-10-03T12:39:53.558Z,23.00
2018-10-03T12:42:24.406Z,22.90
2018-10-03T12:44:55.277Z,23.00
2018-10-03T12:47:26.132Z,23.20
2018-10-03T12:49:56.881Z,23.50
2018-10-03T12:52:28.508Z,23.80
2018-10-03T12:54:59.298Z,24.10
2018-10-03T12:57:29.744Z,24.30
2018-10-03T13:00:00.510Z,24.40
2018-10-03T13:02:31.117Z,24.40
2018-10-03T13:05:01.785Z,24.30
2018-10-03T13:07:32.827Z,24.10
2018-10-03T13:10:03.769Z,23.80
2018-10-03T13:12:34.654Z,23.60
2018-10-03T13:15:05.987Z,23.40
2018-10-03T13:17:36.897Z,23.30
2018-10-03T13:20:09.218Z,23.10
2018-10-03T13:22:39.902Z,22.90
2018-10-03T13:25:10.722Z,22.80
2018-10-03T13:27:42.616Z,22.60
2018-10-03T13:30:13.506Z,22.50
2018-10-03T13:32:44.298Z,22.40
2018-10-03T13:35:14.778Z,22.30
2018-10-03T13:37:45.396Z,22.20
2018-10-03T13:40:16.122Z,22.10
2018-10-03T13:42:46.845Z,22.10
2018-10-03T13:45:17.532Z,22.00
2018-10-03T13:47:48.078Z,21.90
2018-10-03T13:50:19.055Z,21.80
2018-10-03T13:52:49.792Z,21.80
2018-10-03T13:55:20.759Z,21.70
2018-10-03T13:57:51.842Z,21.70
2018-10-03T14:00:22.871Z,21.60
2018-10-03T14:02:53.682Z,21.60
2018-10-03T14:05:24.516Z,21.60
2018-10-03T14:07:55.253Z,21.60
2018-10-03T14:10:25.905Z,21.60
2018-10-03T14:12:56.950Z,21.60
2018-10-03T14:15:27.839Z,21.60
2018-10-03T14:17:58.534Z,21.60
2018-10-03T14:20:29.302Z,21.60
2018-10-03T14:23:00.479Z,21.60
2018-10-03T14:25:31.190Z,21.70
2018-10-03T14:28:02.089Z,21.80
2018-10-03T14:30:32.984Z,21.90
2018-10-03T14:33:04.185Z,22.00
2018-10-03T14:35:35.118Z,22.20
2018-10-03T14:38:06.452Z,22.20
2018-10-03T14:40:37.190Z,22.20
2018-10-03T14:43:08.111Z,22.20
2018-10-03T14:45:38.793Z,22.20
2018-10-03T14:48:09.802Z,22.20
2018-10-03T14:50:40.605Z,22.10
2018-10-03T14:53:11.047Z,22.10
2018-10-03T14:55:41.729Z,22.10
2018-10-03T14:58:12.581Z,22.00
2018-10-03T15:00:43.483Z,22.00
2018-10-03T15:03:14.271Z,21.90
2018-10-03T15:05:45.059Z,21.80
2018-10-03T15:08:15.795Z,21.70
2018-10-03T15:10:46.910Z,21.60
2018-10-03T15:13:17.735Z,21.40
2018-10-03T15:15:48.865Z,21.20
2018-10-03T15:18:19.865Z,21.10
2018-10-03T15:20:51.470Z,20.90
2018-10-03T15:23:22.579Z,20.80
2018-10-03T15:25:53.345Z,20.70
2018-10-03T15:28:24.022Z,20.50
2018-10-03T15:30:54.693Z,20.50
2018-10-03T15:33:25.517Z,20.30
2018-10-03T15:35:56.632Z,20.30
2018-10-03T15:38:27.437Z,20.10
2018-10-03T15:40:58.325Z,20.10
2018-10-03T15:43:29.028Z,20.10
2018-10-03T15:46:00.874Z,20.00
2018-10-03T15:48:31.664Z,20.00
2018-10-03T15:51:02.490Z,19.90
2018-10-03T15:53:33.657Z,19.80
2018-10-03T15:56:04.983Z,19.80
2018-10-03T15:58:35.876Z,19.70
2018-10-03T16:01:06.885Z,19.70
2018-10-03T16:03:37.613Z,19.70
2018-10-03T16:06:08.705Z,19.60
2018-10-03T16:08:39.803Z,19.60
2018-10-03T16:11:10.533Z,19.50
2018-10-03T16:13:41.516Z,19.50
2018-10-03T16:16:12.550Z,19.50
2018-10-03T16:18:43.476Z,19.40
2018-10-03T16:21:14.445Z,19.40
2018-10-03T16:23:45.452Z,19.30
2018-10-03T16:26:16.413Z,19.30
2018-10-03T16:28:47.327Z,19.20
2018-10-03T16:31:18.306Z,19.10
2018-10-03T16:33:49.010Z,19.10
2018-10-03T16:36:19.868Z,19.10
2018-10-03T16:38:50.888Z,19.00
2018-10-03T16:41:22.373Z,19.00
2018-10-03T16:43:53.176Z,18.90
2018-10-03T16:46:23.785Z,18.90
2018-10-03T16:48:54.832Z,18.80
2018-10-03T16:51:25.419Z,18.80
2018-10-03T16:53:56.362Z,18.70
2018-10-03T16:56:27.061Z,18.70
2018-10-03T16:58:57.848Z,18.60
2018-10-03T17:01:28.551Z,18.60
2018-10-03T17:03:59.903Z,18.50
2018-10-03T17:06:30.809Z,18.50
2018-10-03T17:09:02.157Z,18.50
2018-10-03T17:11:33.008Z,18.40
2018-10-03T17:14:28.178Z,18.30
2018-10-03T17:16:58.927Z,18.30
2018-10-03T17:19:30.234Z,18.10
2018-10-03T17:22:01.452Z,18.10
2018-10-03T17:24:33.761Z,18.10
2018-10-03T17:27:04.748Z,18.00
2018-10-03T17:29:35.891Z,17.90
2018-10-03T17:32:07.155Z,17.80
2018-10-03T17:34:38.392Z,17.80
2018-10-03T17:37:09.261Z,17.70
2018-10-03T17:39:40.061Z,17.60
2018-10-03T17:42:10.789Z,17.60
2018-10-03T17:44:41.799Z,17.50
2018-10-03T17:47:12.870Z,17.40
2018-10-03T17:49:50.214Z,17.40
2018-10-03T17:52:21.084Z,17.30
2018-10-03T17:54:51.986Z,17.30
2018-10-03T17:57:22.845Z,17.20
2018-10-03T17:59:53.450Z,17.10
2018-10-03T18:02:24.594Z,17.10
2018-10-03T18:04:55.470Z,17.00
2018-10-03T18:07:26.568Z,16.90
2018-10-03T18:09:57.410Z,16.90
2018-10-03T18:12:28.461Z,16.80
2018-10-03T18:14:59.473Z,16.80
2018-10-03T18:17:30.527Z,16.70
2018-10-03T18:20:01.382Z,16.70
2018-10-03T18:22:32.305Z,16.60
2018-10-03T18:25:03.175Z,16.60
2018-10-03T18:27:34.234Z,16.50
2018-10-03T18:30:05.901Z,16.40
2018-10-03T18:32:37.246Z,16.40
2018-10-03T18:35:08.802Z,16.30
2018-10-03T18:37:39.850Z,16.20
2018-10-03T18:40:10.857Z,16.20
2018-10-03T18:42:42.734Z,16.20
2018-10-03T18:45:13.819Z,16.30
2018-10-03T18:47:45.106Z,16.10
2018-10-03T18:50:16.753Z,16.00
2018-10-03T18:52:47.810Z,16.00
2018-10-03T18:55:18.751Z,16.40
2018-10-03T18:57:49.893Z,15.90
2018-10-03T19:00:21.246Z,15.90
2018-10-03T19:02:52.292Z,15.80
2018-10-03T19:05:23.443Z,15.80
2018-10-03T19:07:54.687Z,15.70
2018-10-03T19:10:25.759Z,15.70
2018-10-03T19:12:56.976Z,15.70
2018-10-03T19:15:27.901Z,15.60
2018-10-03T19:17:58.851Z,15.50
2018-10-03T19:20:30.297Z,15.50
2018-10-03T19:23:01.350Z,15.50
2018-10-03T19:25:32.602Z,15.50
2018-10-03T19:28:03.935Z,15.40
2018-10-03T19:30:35.195Z,15.40
2018-10-03T19:33:06.201Z,15.40
2018-10-03T19:35:37.756Z,15.30
2018-10-03T19:38:09.715Z,15.30
2018-10-03T19:40:40.619Z,15.30
2018-10-03T19:43:11.827Z,15.30
2018-10-03T19:45:42.898Z,15.20
2018-10-03T19:48:13.971Z,15.20
2018-10-03T19:50:44.803Z,15.20
2018-10-03T19:53:19.661Z,15.10
2018-10-03T19:55:50.426Z,15.10
2018-10-03T19:58:21.778Z,15.10
2018-10-03T20:00:52.533Z,15.00
2018-10-03T20:03:23.563Z,15.00
2018-10-03T20:05:54.410Z,15.00
2018-10-03T20:08:25.016Z,14.90
2018-10-03T20:10:55.741Z,14.90
2018-10-03T20:13:26.277Z,14.80
2018-10-03T20:15:57.176Z,14.80
2018-10-03T20:18:27.970Z,14.80
2018-10-03T20:20:58.773Z,14.80
2018-10-03T20:23:29.601Z,14.70
2018-10-03T20:26:00.579Z,14.70
2018-10-03T20:28:31.296Z,14.60
2018-10-03T20:31:02.026Z,14.60
2018-10-03T20:33:32.645Z,14.60
2018-10-03T20:36:03.756Z,14.50
2018-10-03T20:38:34.464Z,14.50
2018-10-03T20:41:05.525Z,14.40
2018-10-03T20:43:36.417Z,14.40
2018-10-03T20:46:07.758Z,14.40
2018-10-03T20:48:38.430Z,14.30
2018-10-03T20:51:09.530Z,14.30
2018-10-03T20:53:40.591Z,14.20
2018-10-03T20:56:11.330Z,14.20
2018-10-03T20:58:42.352Z,14.20
2018-10-03T21:01:13.106Z,14.20
2018-10-03T21:03:43.884Z,14.10
2018-10-03T21:06:14.606Z,14.10
2018-10-03T21:08:45.831Z,14.10
2018-10-03T21:11:16.855Z,14.10
2018-10-03T21:13:47.583Z,14.00
2018-10-03T21:16:18.598Z,14.00
2018-10-03T21:18:49.168Z,14.00
2018-10-03T21:21:20.045Z,13.90
2018-10-03T21:23:50.642Z,13.90
2018-10-03T21:26:21.456Z,13.90
2018-10-03T21:28:52.472Z,13.90
2018-10-03T21:31:23.346Z,13.90
2018-10-03T21:33:53.902Z,13.80
2018-10-03T21:36:24.582Z,13.80
2018-10-03T21:38:55.203Z,13.70
2018-10-03T21:41:26.405Z,13.70
2018-10-03T21:43:57.237Z,13.70
2018-10-03T21:46:28.366Z,13.60
2018-10-03T21:48:58.906Z,13.60
2018-10-03T21:51:29.921Z,13.60
2018-10-03T21:54:01.089Z,13.50
2018-10-03T21:56:32.240Z,13.50
2018-10-03T21:59:04.201Z,13.50
2018-10-03T22:01:34.778Z,13.50
2018-10-03T22:04:05.529Z,13.40
2018-10-03T22:06:36.189Z,13.40
2018-10-03T22:09:08.528Z,13.40
2018-10-03T22:11:39.090Z,13.30
2018-10-03T22:14:10.303Z,13.30
2018-10-03T22:16:40.925Z,13.30
2018-10-03T22:19:11.526Z,13.30
2018-10-03T22:21:42.212Z,13.30
2018-10-03T22:24:12.969Z,13.30
2018-10-03T22:26:43.727Z,13.30
2018-10-03T22:29:14.748Z,13.20
2018-10-03T22:31:45.478Z,13.20
2018-10-03T22:34:19.113Z,13.20
2018-10-03T22:36:49.777Z,13.20
2018-10-03T22:39:20.561Z,13.10
2018-10-03T22:41:51.075Z,13.10
2018-10-03T22:44:21.647Z,13.10
2018-10-03T22:46:52.213Z,13.20
2018-10-03T22:49:22.825Z,13.10
2018-10-03T22:51:53.887Z,13.20
2018-10-03T22:54:24.510Z,13.10
2018-10-03T22:56:55.350Z,13.10
2018-10-03T22:59:25.967Z,13.10
2018-10-03T23:01:57.067Z,13.10
2018-10-03T23:04:28.876Z,13.60
2018-10-03T23:06:59.877Z,13.00
2018-10-03T23:09:30.433Z,13.00
2018-10-03T23:12:01.131Z,13.00
2018-10-03T23:14:31.882Z,12.90
2018-10-03T23:17:02.399Z,12.80
2018-10-03T23:19:32.943Z,12.80
2018-10-03T23:22:03.755Z,12.80
2018-10-03T23:24:34.554Z,12.70
2018-10-03T23:27:05.670Z,12.70
2018-10-03T23:29:36.251Z,12.60
2018-10-03T23:32:07.058Z,12.60
2018-10-03T23:34:37.727Z,12.60
2018-10-03T23:37:09.278Z,12.60
2018-10-03T23:39:39.901Z,12.60
2018-10-03T23:42:10.576Z,12.60
2018-10-03T23:44:41.667Z,12.50
2018-10-03T23:47:12.331Z,12.50
2018-10-03T23:49:43.074Z,12.50
2018-10-03T23:52:13.845Z,12.50
2018-10-03T23:54:44.539Z,12.50
2018-10-03T23:57:15.139Z,12.50
2018-10-03T23:59:46.035Z,12.50
